Terminal Aerodrome Forecast
Issued by NWS Sioux Falls, SD

Home | Current Version | Previous Version | Graphics & Text | Print | Product List | Glossary Off
Versions: 1 2 3 4 5 6 7 8 9 10 11 12 13 14 15 16 17 18 19 20 21 22 23

000
FTUS43 KFSD 231101 AAB
TAFSUX
TAF AMD
KSUX 231101Z 2311/2406 VRB03KT 1/4SM FG VV002
      TEMPO 2311/2312 1SM BR BKN004
     FM231300 29004KT 1/2SM FG SCT003
      TEMPO 2314/2316 3SM BR
     FM231600 25006KT P6SM SCT250
     FM232000 18006KT P6SM SKC=

USA.gov is the U.S. government's official web portal to all federal, state and local government web resources and services.